KHWO/HWO METAR and TAF weather

Enter ICAO airport designator
Station Type Date Time Source
KHWO METAR 2019/12/10 19:53 UTC NOAA

KHWO 101953Z 14011G18KT 10SM FEW022 FEW027 SCT060 29/22 A3008 RMK AO2 SLP184 T02890217 $


Station Type Date Time Source
KHWO Decoded METAR 2019/12/10 19:53 UTC NOAA

HOLLYWOOD NORTH PERRY AIRPORT , FL, United States (KHWO) 26-00N 080-14W 2M
Dec 10, 2019 - 02:53 PM EST / 2019.12.10 1953 UTC
Wind: from the SE (140 degrees) at 13 MPH (11 KT) gusting to 21 MPH (18 KT):0
Visibility: 10 mile(s):0
Sky conditions: partly cloudy
Temperature: 84.0 F (28.9 C)
Dew Point: 71.1 F (21.7 C)
Relative Humidity: 65%
Pressure (altimeter): 30.08 in. Hg (1018 hPa)
ob: KHWO 101953Z 14011G18KT 10SM FEW022 FEW027 SCT060 29/22 A3008 RMK AO2 SLP184 T02890217
cycle: 20

Station Type Date Time Source
KHWO TAF UTC NOAA

Error!

Example: see airport list